sensor_id;sensor_type;location;lat;lon;timestamp;pressure;altitude;pressure_sealevel;temperature;humidity
35307;BME280;21420;52.196;21.416;2023-02-14T00:00:49;101689.13;;;7.48;64.78
35307;BME280;21420;52.196;21.416;2023-02-14T00:03:16;101692.45;;;6.99;64.74
35307;BME280;21420;52.196;21.416;2023-02-14T00:05:43;101693.85;;;6.60;64.66
35307;BME280;21420;52.196;21.416;2023-02-14T00:08:10;101703.41;;;6.31;64.79
35307;BME280;21420;52.196;21.416;2023-02-14T00:10:37;101697.02;;;6.05;64.83
35307;BME280;21420;52.196;21.416;2023-02-14T00:13:04;101695.25;;;5.86;65.04
35307;BME280;21420;52.196;21.416;2023-02-14T00:15:30;101694.87;;;5.74;65.18
35307;BME280;21420;52.196;21.416;2023-02-14T00:17:58;101700.03;;;5.64;65.27
35307;BME280;21420;52.196;21.416;2023-02-14T00:20:26;101698.45;;;5.57;65.40
35307;BME280;21420;52.196;21.416;2023-02-14T00:22:54;101694.58;;;5.50;65.51
35307;BME280;21420;52.196;21.416;2023-02-14T00:25:21;101702.01;;;5.43;65.56
35307;BME280;21420;52.196;21.416;2023-02-14T00:27:48;101705.15;;;5.38;65.52
35307;BME280;21420;52.196;21.416;2023-02-14T00:30:16;101697.91;;;5.32;65.63
35307;BME280;21420;52.196;21.416;2023-02-14T00:32:43;101702.67;;;5.27;65.65
35307;BME280;21420;52.196;21.416;2023-02-14T00:35:10;101702.69;;;5.23;65.71
35307;BME280;21420;52.196;21.416;2023-02-14T00:37:39;101701.03;;;5.19;65.82
35307;BME280;21420;52.196;21.416;2023-02-14T00:40:07;101703.53;;;5.17;65.96
35307;BME280;21420;52.196;21.416;2023-02-14T00:42:35;101706.61;;;5.15;66.02
35307;BME280;21420;52.196;21.416;2023-02-14T00:45:02;101698.30;;;5.13;66.03
35307;BME280;21420;52.196;21.416;2023-02-14T00:47:29;101696.72;;;5.11;66.14
35307;BME280;21420;52.196;21.416;2023-02-14T00:49:56;101706.75;;;5.08;66.06
35307;BME280;21420;52.196;21.416;2023-02-14T00:52:29;101709.02;;;5.05;66.06
35307;BME280;21420;52.196;21.416;2023-02-14T00:54:57;101710.61;;;5.07;66.23
35307;BME280;21420;52.196;21.416;2023-02-14T00:57:24;101703.67;;;5.07;66.26
35307;BME280;21420;52.196;21.416;2023-02-14T00:59:51;101711.11;;;5.08;66.29
35307;BME280;21420;52.196;21.416;2023-02-14T01:02:19;101720.28;;;5.08;66.39
35307;BME280;21420;52.196;21.416;2023-02-14T01:04:46;101726.03;;;5.06;66.43
35307;BME280;21420;52.196;21.416;2023-02-14T01:07:13;101721.95;;;5.04;66.34
35307;BME280;21420;52.196;21.416;2023-02-14T01:09:40;101729.55;;;5.04;66.33
35307;BME280;21420;52.196;21.416;2023-02-14T01:12:07;101729.77;;;5.05;66.32
35307;BME280;21420;52.196;21.416;2023-02-14T01:14:34;101721.36;;;5.06;66.47
35307;BME280;21420;52.196;21.416;2023-02-14T01:17:01;101716.09;;;5.06;66.55
35307;BME280;21420;52.196;21.416;2023-02-14T01:19:28;101712.30;;;5.06;66.60
35307;BME280;21420;52.196;21.416;2023-02-14T01:21:55;101714.29;;;5.05;66.52
35307;BME280;21420;52.196;21.416;2023-02-14T01:24:22;101714.89;;;5.05;66.60
35307;BME280;21420;52.196;21.416;2023-02-14T01:26:50;101717.44;;;5.03;66.58
35307;BME280;21420;52.196;21.416;2023-02-14T01:29:17;101718.18;;;4.99;66.57
35307;BME280;21420;52.196;21.416;2023-02-14T01:31:44;101721.21;;;4.95;66.60
35307;BME280;21420;52.196;21.416;2023-02-14T01:34:14;101719.64;;;4.93;66.61
35307;BME280;21420;52.196;21.416;2023-02-14T01:36:41;101727.88;;;4.93;66.69
35307;BME280;21420;52.196;21.416;2023-02-14T01:39:13;101732.59;;;4.92;66.72
35307;BME280;21420;52.196;21.416;2023-02-14T01:41:45;101728.53;;;4.94;66.75
35307;BME280;21420;52.196;21.416;2023-02-14T01:46:44;101724.40;;;4.92;66.72
35307;BME280;21420;52.196;21.416;2023-02-14T01:49:18;101729.21;;;4.88;66.73
35307;BME280;21420;52.196;21.416;2023-02-14T01:51:53;101724.81;;;4.86;66.83
35307;BME280;21420;52.196;21.416;2023-02-14T01:54:24;101718.17;;;4.85;66.86
35307;BME280;21420;52.196;21.416;2023-02-14T01:56:56;101725.66;;;4.82;66.82
35307;BME280;21420;52.196;21.416;2023-02-14T01:59:28;101726.03;;;4.81;66.81
35307;BME280;21420;52.196;21.416;2023-02-14T02:01:58;101726.88;;;4.78;66.73
35307;BME280;21420;52.196;21.416;2023-02-14T02:04:29;101728.94;;;4.75;66.84
35307;BME280;21420;52.196;21.416;2023-02-14T02:07:01;101739.73;;;4.73;66.94
35307;BME280;21420;52.196;21.416;2023-02-14T02:12:01;101728.92;;;4.73;66.95
35307;BME280;21420;52.196;21.416;2023-02-14T02:14:29;101722.67;;;4.74;67.02
35307;BME280;21420;52.196;21.416;2023-02-14T02:28:54;101732.20;;;4.66;67.15
35307;BME280;21420;52.196;21.416;2023-02-14T02:48:41;101730.63;;;4.56;67.22
35307;BME280;21420;52.196;21.416;2023-02-14T02:51:15;101737.09;;;4.55;67.25
35307;BME280;21420;52.196;21.416;2023-02-14T02:54:11;101738.68;;;4.53;67.34
35307;BME280;21420;52.196;21.416;2023-02-14T02:56:51;101741.96;;;4.54;67.43
35307;BME280;21420;52.196;21.416;2023-02-14T02:59:29;101743.10;;;4.55;67.42
35307;BME280;21420;52.196;21.416;2023-02-14T03:02:16;101740.44;;;4.55;67.46
35307;BME280;21420;52.196;21.416;2023-02-14T03:04:51;101742.85;;;4.50;67.32
35307;BME280;21420;52.196;21.416;2023-02-14T03:07:37;101746.55;;;4.45;67.36
35307;BME280;21420;52.196;21.416;2023-02-14T03:10:13;101744.36;;;4.42;67.34
35307;BME280;21420;52.196;21.416;2023-02-14T03:21:46;101756.52;;;4.41;67.48
35307;BME280;21420;52.196;21.416;2023-02-14T03:27:15;101754.87;;;4.38;67.51
35307;BME280;21420;52.196;21.416;2023-02-14T03:32:40;101751.95;;;4.38;67.52
35307;BME280;21420;52.196;21.416;2023-02-14T03:35:23;101746.94;;;4.36;67.57
35307;BME280;21420;52.196;21.416;2023-02-14T03:41:01;101755.41;;;4.37;67.61
35307;BME280;21420;52.196;21.416;2023-02-14T03:43:33;101751.06;;;4.37;67.63
35307;BME280;21420;52.196;21.416;2023-02-14T03:46:09;101762.38;;;4.39;67.67
35307;BME280;21420;52.196;21.416;2023-02-14T03:48:38;101759.00;;;4.40;67.68
35307;BME280;21420;52.196;21.416;2023-02-14T03:51:08;101750.91;;;4.38;67.65
35307;BME280;21420;52.196;21.416;2023-02-14T03:53:40;101753.81;;;4.34;67.61
35307;BME280;21420;52.196;21.416;2023-02-14T03:56:14;101757.55;;;4.32;67.71
35307;BME280;21420;52.196;21.416;2023-02-14T03:58:47;101755.75;;;4.32;67.69
35307;BME280;21420;52.196;21.416;2023-02-14T04:01:29;101752.30;;;4.34;67.73
35307;BME280;21420;52.196;21.416;2023-02-14T04:03:58;101752.06;;;4.32;67.83
35307;BME280;21420;52.196;21.416;2023-02-14T04:06:26;101767.04;;;4.33;67.80
35307;BME280;21420;52.196;21.416;2023-02-14T04:08:53;101764.35;;;4.30;67.69
35307;BME280;21420;52.196;21.416;2023-02-14T04:11:20;101768.48;;;4.30;67.71
35307;BME280;21420;52.196;21.416;2023-02-14T04:13:50;101780.18;;;4.29;67.81
35307;BME280;21420;52.196;21.416;2023-02-14T04:16:17;101779.92;;;4.30;67.90
35307;BME280;21420;52.196;21.416;2023-02-14T04:18:44;101778.16;;;4.28;67.82
35307;BME280;21420;52.196;21.416;2023-02-14T04:21:29;101782.56;;;4.21;67.69
35307;BME280;21420;52.196;21.416;2023-02-14T04:23:56;101783.39;;;4.17;67.75
35307;BME280;21420;52.196;21.416;2023-02-14T04:26:23;101785.61;;;4.16;67.79
35307;BME280;21420;52.196;21.416;2023-02-14T04:28:50;101782.23;;;4.14;67.76
35307;BME280;21420;52.196;21.416;2023-02-14T04:31:16;101788.14;;;4.12;67.80
35307;BME280;21420;52.196;21.416;2023-02-14T04:33:43;101788.03;;;4.13;67.72
35307;BME280;21420;52.196;21.416;2023-02-14T04:36:11;101780.91;;;4.11;67.77
35307;BME280;21420;52.196;21.416;2023-02-14T04:38:38;101783.42;;;4.12;67.97
35307;BME280;21420;52.196;21.416;2023-02-14T04:41:05;101794.48;;;4.13;68.02
35307;BME280;21420;52.196;21.416;2023-02-14T04:43:32;101795.34;;;4.13;68.01
35307;BME280;21420;52.196;21.416;2023-02-14T04:45:59;101791.32;;;4.10;68.03
35307;BME280;21420;52.196;21.416;2023-02-14T04:48:25;101793.21;;;4.10;68.00
35307;BME280;21420;52.196;21.416;2023-02-14T04:50:53;101795.89;;;4.12;67.96
35307;BME280;21420;52.196;21.416;2023-02-14T04:53:21;101793.06;;;4.11;67.91
35307;BME280;21420;52.196;21.416;2023-02-14T04:55:48;101792.56;;;4.10;67.88
35307;BME280;21420;52.196;21.416;2023-02-14T04:58:16;101805.84;;;4.09;67.89
35307;BME280;21420;52.196;21.416;2023-02-14T05:00:43;101799.98;;;4.09;68.06
35307;BME280;21420;52.196;21.416;2023-02-14T05:03:10;101795.55;;;4.06;68.11
35307;BME280;21420;52.196;21.416;2023-02-14T05:05:37;101799.92;;;4.04;68.10
35307;BME280;21420;52.196;21.416;2023-02-14T05:08:04;101799.33;;;4.03;68.15
35307;BME280;21420;52.196;21.416;2023-02-14T05:10:31;101804.80;;;4.02;68.03
35307;BME280;21420;52.196;21.416;2023-02-14T05:12:59;101809.48;;;4.00;68.10
35307;BME280;21420;52.196;21.416;2023-02-14T05:15:26;101807.48;;;3.97;68.11
35307;BME280;21420;52.196;21.416;2023-02-14T05:17:53;101807.13;;;3.96;68.19
35307;BME280;21420;52.196;21.416;2023-02-14T05:20:20;101814.67;;;3.98;68.23
35307;BME280;21420;52.196;21.416;2023-02-14T05:22:47;101817.86;;;3.97;68.23
35307;BME280;21420;52.196;21.416;2023-02-14T05:25:14;101820.85;;;3.97;68.23
35307;BME280;21420;52.196;21.416;2023-02-14T05:27:40;101820.56;;;3.96;68.23
35307;BME280;21420;52.196;21.416;2023-02-14T05:30:08;101816.44;;;3.95;68.22
35307;BME280;21420;52.196;21.416;2023-02-14T05:32:35;101811.17;;;3.95;68.28
35307;BME280;21420;52.196;21.416;2023-02-14T05:35:02;101812.09;;;3.95;68.22
35307;BME280;21420;52.196;21.416;2023-02-14T05:37:30;101810.30;;;3.93;68.30
35307;BME280;21420;52.196;21.416;2023-02-14T05:39:57;101812.72;;;3.92;68.29
35307;BME280;21420;52.196;21.416;2023-02-14T05:42:24;101816.05;;;3.87;68.24
35307;BME280;21420;52.196;21.416;2023-02-14T05:44:51;101810.77;;;3.86;68.27
35307;BME280;21420;52.196;21.416;2023-02-14T05:47:17;101811.82;;;3.88;68.32
35307;BME280;21420;52.196;21.416;2023-02-14T05:49:44;101818.83;;;3.89;68.48
35307;BME280;21420;52.196;21.416;2023-02-14T05:52:11;101816.55;;;3.91;68.46
35307;BME280;21420;52.196;21.416;2023-02-14T05:54:38;101808.71;;;3.92;68.52
35307;BME280;21420;52.196;21.416;2023-02-14T05:57:05;101810.15;;;3.94;68.63
35307;BME280;21420;52.196;21.416;2023-02-14T05:59:32;101817.66;;;3.93;68.44
35307;BME280;21420;52.196;21.416;2023-02-14T06:01:59;101823.10;;;3.89;68.44
35307;BME280;21420;52.196;21.416;2023-02-14T06:04:26;101829.23;;;3.88;68.42
35307;BME280;21420;52.196;21.416;2023-02-14T06:06:52;101824.36;;;3.89;68.50
35307;BME280;21420;52.196;21.416;2023-02-14T06:09:19;101821.83;;;3.91;68.63
35307;BME280;21420;52.196;21.416;2023-02-14T06:11:46;101826.98;;;3.91;68.56
35307;BME280;21420;52.196;21.416;2023-02-14T06:14:13;101831.96;;;3.88;68.49
35307;BME280;21420;52.196;21.416;2023-02-14T06:16:40;101832.50;;;3.87;68.45
35307;BME280;21420;52.196;21.416;2023-02-14T06:19:07;101839.23;;;3.86;68.48
35307;BME280;21420;52.196;21.416;2023-02-14T06:21:34;101844.34;;;3.88;68.63
35307;BME280;21420;52.196;21.416;2023-02-14T06:24:01;101839.23;;;3.92;68.67
35307;BME280;21420;52.196;21.416;2023-02-14T06:26:28;101841.59;;;3.94;68.67
35307;BME280;21420;52.196;21.416;2023-02-14T06:28:57;101841.25;;;3.93;68.62
35307;BME280;21420;52.196;21.416;2023-02-14T06:31:24;101843.14;;;3.93;68.67
35307;BME280;21420;52.196;21.416;2023-02-14T06:33:52;101844.09;;;3.90;68.61
35307;BME280;21420;52.196;21.416;2023-02-14T06:36:19;101847.40;;;3.90;68.58
35307;BME280;21420;52.196;21.416;2023-02-14T06:38:47;101846.83;;;3.87;68.57
35307;BME280;21420;52.196;21.416;2023-02-14T06:41:15;101849.94;;;3.86;68.60
35307;BME280;21420;52.196;21.416;2023-02-14T06:43:46;101853.15;;;3.86;68.71
35307;BME280;21420;52.196;21.416;2023-02-14T06:46:16;101848.95;;;3.90;68.80
35307;BME280;21420;52.196;21.416;2023-02-14T06:48:44;101853.58;;;3.91;68.78
35307;BME280;21420;52.196;21.416;2023-02-14T06:51:11;101862.66;;;3.88;68.70
35307;BME280;21420;52.196;21.416;2023-02-14T06:53:38;101856.30;;;3.86;68.63
35307;BME280;21420;52.196;21.416;2023-02-14T06:56:06;101860.17;;;3.85;68.64
35307;BME280;21420;52.196;21.416;2023-02-14T06:58:33;101868.05;;;3.86;68.75
35307;BME280;21420;52.196;21.416;2023-02-14T07:01:00;101864.20;;;3.90;68.90
35307;BME280;21420;52.196;21.416;2023-02-14T07:03:27;101858.55;;;3.93;69.02
35307;BME280;21420;52.196;21.416;2023-02-14T07:05:56;101855.01;;;3.96;68.99
35307;BME280;21420;52.196;21.416;2023-02-14T07:08:23;101863.45;;;3.95;68.87
35307;BME280;21420;52.196;21.416;2023-02-14T07:10:57;101868.89;;;3.93;68.86
35307;BME280;21420;52.196;21.416;2023-02-14T07:13:25;101868.15;;;3.94;68.91
35307;BME280;21420;52.196;21.416;2023-02-14T07:15:52;101862.58;;;3.95;68.93
35307;BME280;21420;52.196;21.416;2023-02-14T07:18:20;101868.48;;;3.97;68.88
35307;BME280;21420;52.196;21.416;2023-02-14T07:20:49;101871.91;;;4.01;68.95
35307;BME280;21420;52.196;21.416;2023-02-14T07:23:16;101876.40;;;4.07;68.94
35307;BME280;21420;52.196;21.416;2023-02-14T07:25:43;101883.84;;;4.13;69.19
35307;BME280;21420;52.196;21.416;2023-02-14T07:28:09;101887.48;;;4.18;69.05
35307;BME280;21420;52.196;21.416;2023-02-14T07:30:36;101889.92;;;4.20;69.03
35307;BME280;21420;52.196;21.416;2023-02-14T07:33:03;101892.39;;;4.23;69.09
35307;BME280;21420;52.196;21.416;2023-02-14T07:35:30;101888.19;;;4.25;69.12
35307;BME280;21420;52.196;21.416;2023-02-14T07:38:00;101894.92;;;4.27;69.12
35307;BME280;21420;52.196;21.416;2023-02-14T07:40:27;101903.24;;;4.29;69.08
35307;BME280;21420;52.196;21.416;2023-02-14T07:42:56;101907.16;;;4.30;69.07
35307;BME280;21420;52.196;21.416;2023-02-14T07:45:24;101904.14;;;4.31;69.13
35307;BME280;21420;52.196;21.416;2023-02-14T07:47:53;101906.27;;;4.33;69.09
35307;BME280;21420;52.196;21.416;2023-02-14T07:50:21;101903.94;;;4.32;69.05
35307;BME280;21420;52.196;21.416;2023-02-14T07:52:49;101908.31;;;4.31;69.04
35307;BME280;21420;52.196;21.416;2023-02-14T07:55:16;101905.94;;;4.28;69.00
35307;BME280;21420;52.196;21.416;2023-02-14T07:57:48;101902.73;;;4.27;69.08
35307;BME280;21420;52.196;21.416;2023-02-14T08:00:15;101905.24;;;4.28;69.14
35307;BME280;21420;52.196;21.416;2023-02-14T08:02:43;101908.45;;;4.29;69.12
35307;BME280;21420;52.196;21.416;2023-02-14T08:05:10;101911.32;;;4.34;69.17
35307;BME280;21420;52.196;21.416;2023-02-14T08:07:37;101912.89;;;4.39;69.11
35307;BME280;21420;52.196;21.416;2023-02-14T08:10:04;101916.89;;;4.43;69.18
35307;BME280;21420;52.196;21.416;2023-02-14T08:12:31;101917.35;;;4.45;69.23
35307;BME280;21420;52.196;21.416;2023-02-14T08:15:17;101915.95;;;4.47;69.23
35307;BME280;21420;52.196;21.416;2023-02-14T08:18:03;101915.99;;;4.51;69.19
35307;BME280;21420;52.196;21.416;2023-02-14T08:20:30;101912.02;;;4.55;69.13
35307;BME280;21420;52.196;21.416;2023-02-14T08:22:57;101914.52;;;4.57;69.20
35307;BME280;21420;52.196;21.416;2023-02-14T08:25:24;101913.11;;;4.56;69.02
35307;BME280;21420;52.196;21.416;2023-02-14T08:27:51;101911.58;;;4.55;69.05
35307;BME280;21420;52.196;21.416;2023-02-14T08:30:17;101906.42;;;4.56;69.15
35307;BME280;21420;52.196;21.416;2023-02-14T08:32:45;101917.54;;;4.67;69.54
35307;BME280;21420;52.196;21.416;2023-02-14T08:35:12;101925.82;;;5.36;70.84
35307;BME280;21420;52.196;21.416;2023-02-14T08:37:39;101928.31;;;5.87;71.05
35307;BME280;21420;52.196;21.416;2023-02-14T08:40:06;101926.79;;;6.16;70.74
35307;BME280;21420;52.196;21.416;2023-02-14T08:42:33;101929.26;;;6.34;70.62
35307;BME280;21420;52.196;21.416;2023-02-14T08:45:03;101926.14;;;6.61;70.69
35307;BME280;21420;52.196;21.416;2023-02-14T08:47:31;101925.65;;;6.80;70.55
35307;BME280;21420;52.196;21.416;2023-02-14T08:50:02;101926.35;;;6.95;70.44
35307;BME280;21420;52.196;21.416;2023-02-14T08:52:29;101931.95;;;7.08;70.18
35307;BME280;21420;52.196;21.416;2023-02-14T08:54:56;101933.15;;;6.98;69.66
35307;BME280;21420;52.196;21.416;2023-02-14T08:57:23;101933.26;;;7.09;69.95
35307;BME280;21420;52.196;21.416;2023-02-14T08:59:50;101930.06;;;7.25;69.99
35307;BME280;21420;52.196;21.416;2023-02-14T09:02:17;101928.12;;;7.55;70.50
35307;BME280;21420;52.196;21.416;2023-02-14T09:04:44;101927.24;;;7.97;70.94
35307;BME280;21420;52.196;21.416;2023-02-14T09:07:12;101925.63;;;8.14;70.42
35307;BME280;21420;52.196;21.416;2023-02-14T09:09:39;101939.76;;;8.05;69.70
35307;BME280;21420;52.196;21.416;2023-02-14T09:12:08;101937.20;;;7.90;69.38
35307;BME280;21420;52.196;21.416;2023-02-14T09:14:40;101932.30;;;7.90;69.59
35307;BME280;21420;52.196;21.416;2023-02-14T09:17:11;101932.51;;;8.23;70.46
35307;BME280;21420;52.196;21.416;2023-02-14T09:19:38;101931.25;;;8.58;70.61
35307;BME280;21420;52.196;21.416;2023-02-14T09:22:06;101932.63;;;8.86;70.59
35307;BME280;21420;52.196;21.416;2023-02-14T09:24:35;101934.64;;;8.87;69.82
35307;BME280;21420;52.196;21.416;2023-02-14T09:27:03;101932.52;;;8.72;69.36
35307;BME280;21420;52.196;21.416;2023-02-14T09:29:31;101935.29;;;8.80;69.72
35307;BME280;21420;52.196;21.416;2023-02-14T09:31:59;101939.20;;;9.02;70.11
35307;BME280;21420;52.196;21.416;2023-02-14T09:34:28;101944.85;;;9.17;69.97
35307;BME280;21420;52.196;21.416;2023-02-14T09:37:14;101946.13;;;9.20;69.66
35307;BME280;21420;52.196;21.416;2023-02-14T09:39:41;101946.17;;;9.17;69.43
35307;BME280;21420;52.196;21.416;2023-02-14T09:45:20;101935.55;;;9.12;69.46
35307;BME280;21420;52.196;21.416;2023-02-14T09:47:54;101939.10;;;9.53;70.18
35307;BME280;21420;52.196;21.416;2023-02-14T09:50:29;101942.22;;;10.14;70.50
35307;BME280;21420;52.196;21.416;2023-02-14T09:53:02;101939.68;;;10.33;70.05
35307;BME280;21420;52.196;21.416;2023-02-14T09:55:41;101939.42;;;10.40;69.74
35307;BME280;21420;52.196;21.416;2023-02-14T09:58:32;101937.85;;;10.36;69.50
35307;BME280;21420;52.196;21.416;2023-02-14T10:04:00;101936.08;;;10.28;69.18
35307;BME280;21420;52.196;21.416;2023-02-14T10:11:52;101932.43;;;10.60;69.03
35307;BME280;21420;52.196;21.416;2023-02-14T10:14:23;101925.77;;;10.67;69.10
35307;BME280;21420;52.196;21.416;2023-02-14T10:19:39;101936.17;;;10.67;68.75
35307;BME280;21420;52.196;21.416;2023-02-14T10:22:13;101936.65;;;10.71;68.53
35307;BME280;21420;52.196;21.416;2023-02-14T10:25:05;101932.20;;;10.64;68.36
35307;BME280;21420;52.196;21.416;2023-02-14T10:27:36;101934.39;;;10.79;68.72
35307;BME280;21420;52.196;21.416;2023-02-14T10:30:17;101937.17;;;11.02;68.73
35307;BME280;21420;52.196;21.416;2023-02-14T10:33:17;101938.80;;;10.99;68.10
35307;BME280;21420;52.196;21.416;2023-02-14T10:35:50;101939.57;;;10.76;67.59
35307;BME280;21420;52.196;21.416;2023-02-14T10:47:03;101942.71;;;10.48;67.68
35307;BME280;21420;52.196;21.416;2023-02-14T10:54:42;101939.27;;;10.23;66.95
35307;BME280;21420;52.196;21.416;2023-02-14T10:57:17;101930.39;;;9.83;66.33
35307;BME280;21420;52.196;21.416;2023-02-14T11:00:05;101938.95;;;9.33;65.83
35307;BME280;21420;52.196;21.416;2023-02-14T11:02:35;101937.55;;;8.98;66.01
35307;BME280;21420;52.196;21.416;2023-02-14T11:05:04;101937.87;;;8.87;66.10
35307;BME280;21420;52.196;21.416;2023-02-14T11:07:32;101931.42;;;8.66;66.30
35307;BME280;21420;52.196;21.416;2023-02-14T11:09:59;101931.12;;;8.47;66.16
35307;BME280;21420;52.196;21.416;2023-02-14T11:12:40;101936.57;;;8.27;66.21
35307;BME280;21420;52.196;21.416;2023-02-14T11:17:48;101942.13;;;7.88;66.33
35307;BME280;21420;52.196;21.416;2023-02-14T11:20:27;101939.08;;;7.88;66.69
35307;BME280;21420;52.196;21.416;2023-02-14T11:22:57;101934.29;;;7.85;66.69
35307;BME280;21420;52.196;21.416;2023-02-14T11:25:28;101935.73;;;7.81;66.63
35307;BME280;21420;52.196;21.416;2023-02-14T11:28:05;101936.55;;;7.77;66.79
35307;BME280;21420;52.196;21.416;2023-02-14T11:30:44;101932.55;;;7.80;66.94
35307;BME280;21420;52.196;21.416;2023-02-14T11:33:39;101926.02;;;7.79;66.95
35307;BME280;21420;52.196;21.416;2023-02-14T11:36:12;101935.98;;;7.80;66.95
35307;BME280;21420;52.196;21.416;2023-02-14T11:38:42;101927.97;;;7.80;67.00
35307;BME280;21420;52.196;21.416;2023-02-14T11:41:12;101922.02;;;7.83;67.09
35307;BME280;21420;52.196;21.416;2023-02-14T11:43:44;101925.27;;;7.89;67.07
35307;BME280;21420;52.196;21.416;2023-02-14T11:54:00;101924.77;;;7.66;66.66
35307;BME280;21420;52.196;21.416;2023-02-14T12:01:48;101913.45;;;7.97;67.14
35307;BME280;21420;52.196;21.416;2023-02-14T12:04:20;101911.12;;;7.94;66.93
35307;BME280;21420;52.196;21.416;2023-02-14T12:06:48;101913.93;;;7.86;66.78
35307;BME280;21420;52.196;21.416;2023-02-14T12:12:00;101906.39;;;7.66;66.69
35307;BME280;21420;52.196;21.416;2023-02-14T12:14:31;101897.19;;;7.61;66.84
35307;BME280;21420;52.196;21.416;2023-02-14T12:22:36;101895.96;;;7.70;67.03
35307;BME280;21420;52.196;21.416;2023-02-14T12:25:13;101899.61;;;7.72;67.10
35307;BME280;21420;52.196;21.416;2023-02-14T12:27:49;101891.42;;;7.71;67.08
35307;BME280;21420;52.196;21.416;2023-02-14T12:30:22;101897.29;;;7.67;66.92
35307;BME280;21420;52.196;21.416;2023-02-14T12:32:52;101895.96;;;7.70;67.16
35307;BME280;21420;52.196;21.416;2023-02-14T12:35:46;101889.46;;;7.70;66.98
35307;BME280;21420;52.196;21.416;2023-02-14T12:44:13;101883.77;;;7.52;66.82
35307;BME280;21420;52.196;21.416;2023-02-14T12:47:00;101881.42;;;7.51;67.00
35307;BME280;21420;52.196;21.416;2023-02-14T12:50:06;101886.60;;;7.64;67.11
35307;BME280;21420;52.196;21.416;2023-02-14T12:55:28;101887.08;;;7.68;67.02
35307;BME280;21420;52.196;21.416;2023-02-14T13:04:21;101878.88;;;7.62;67.11
35307;BME280;21420;52.196;21.416;2023-02-14T13:12:33;101884.02;;;10.27;70.64
35307;BME280;21420;52.196;21.416;2023-02-14T13:22:39;101887.02;;;11.16;68.64
35307;BME280;21420;52.196;21.416;2023-02-14T13:25:24;101892.68;;;11.26;68.37
35307;BME280;21420;52.196;21.416;2023-02-14T13:28:03;101886.02;;;11.22;68.01
35307;BME280;21420;52.196;21.416;2023-02-14T13:30:33;101881.04;;;11.24;67.79
35307;BME280;21420;52.196;21.416;2023-02-14T13:33:05;101879.90;;;11.07;67.10
35307;BME280;21420;52.196;21.416;2023-02-14T13:35:33;101888.08;;;10.95;67.20
35307;BME280;21420;52.196;21.416;2023-02-14T13:38:04;101893.57;;;10.87;66.99
35307;BME280;21420;52.196;21.416;2023-02-14T13:40:33;101898.68;;;10.64;66.55
35307;BME280;21420;52.196;21.416;2023-02-14T13:43:01;101901.67;;;10.51;66.56
35307;BME280;21420;52.196;21.416;2023-02-14T13:50:52;101894.58;;;11.28;67.98
35307;BME280;21420;52.196;21.416;2023-02-14T13:53:42;101888.96;;;11.57;68.10
35307;BME280;21420;52.196;21.416;2023-02-14T13:58:57;101890.79;;;10.79;65.18
35307;BME280;21420;52.196;21.416;2023-02-14T14:03:58;101893.36;;;9.51;64.87
35307;BME280;21420;52.196;21.416;2023-02-14T14:06:26;101891.86;;;9.19;64.89
35307;BME280;21420;52.196;21.416;2023-02-14T14:08:54;101891.80;;;8.99;65.25
35307;BME280;21420;52.196;21.416;2023-02-14T14:21:24;101888.95;;;8.65;66.21
35307;BME280;21420;52.196;21.416;2023-02-14T14:26:45;101894.16;;;8.85;66.55
35307;BME280;21420;52.196;21.416;2023-02-14T14:29:30;101902.66;;;8.93;66.45
35307;BME280;21420;52.196;21.416;2023-02-14T14:31:58;101902.91;;;8.66;65.73
35307;BME280;21420;52.196;21.416;2023-02-14T14:34:27;101900.57;;;8.45;65.62
35307;BME280;21420;52.196;21.416;2023-02-14T14:37:02;101898.39;;;8.33;65.72
35307;BME280;21420;52.196;21.416;2023-02-14T14:39:32;101894.29;;;8.17;65.74
35307;BME280;21420;52.196;21.416;2023-02-14T14:44:34;101898.96;;;8.29;66.00
35307;BME280;21420;52.196;21.416;2023-02-14T14:47:02;101896.06;;;8.39;66.62
35307;BME280;21420;52.196;21.416;2023-02-14T14:49:30;101903.19;;;8.52;66.53
35307;BME280;21420;52.196;21.416;2023-02-14T14:51:57;101900.40;;;8.44;66.19
35307;BME280;21420;52.196;21.416;2023-02-14T14:54:24;101900.75;;;8.41;66.23
35307;BME280;21420;52.196;21.416;2023-02-14T14:56:56;101900.47;;;8.41;66.38
35307;BME280;21420;52.196;21.416;2023-02-14T14:59:34;101899.67;;;8.48;66.50
35307;BME280;21420;52.196;21.416;2023-02-14T15:02:05;101898.00;;;8.65;66.79
35307;BME280;21420;52.196;21.416;2023-02-14T15:04:45;101900.50;;;8.72;66.91
35307;BME280;21420;52.196;21.416;2023-02-14T15:07:33;101901.27;;;8.80;66.75
35307;BME280;21420;52.196;21.416;2023-02-14T15:10:00;101904.55;;;8.66;66.33
35307;BME280;21420;52.196;21.416;2023-02-14T15:12:28;101905.41;;;8.69;66.45
35307;BME280;21420;52.196;21.416;2023-02-14T15:15:15;101901.96;;;8.54;66.11
35307;BME280;21420;52.196;21.416;2023-02-14T15:17:44;101904.24;;;8.49;66.26
35307;BME280;21420;52.196;21.416;2023-02-14T15:20:18;101903.52;;;8.32;65.98
35307;BME280;21420;52.196;21.416;2023-02-14T15:22:47;101907.14;;;8.14;65.77
35307;BME280;21420;52.196;21.416;2023-02-14T15:25:19;101904.84;;;8.04;66.12
35307;BME280;21420;52.196;21.416;2023-02-14T15:27:47;101907.00;;;8.01;65.98
35307;BME280;21420;52.196;21.416;2023-02-14T15:32:46;101906.38;;;7.93;65.79
35307;BME280;21420;52.196;21.416;2023-02-14T15:35:17;101908.59;;;7.61;65.34
35307;BME280;21420;52.196;21.416;2023-02-14T15:37:48;101908.23;;;7.38;65.44
35307;BME280;21420;52.196;21.416;2023-02-14T15:40:20;101906.16;;;7.17;65.60
35307;BME280;21420;52.196;21.416;2023-02-14T15:42:50;101904.14;;;7.55;67.14
35307;BME280;21420;52.196;21.416;2023-02-14T15:45:28;101909.10;;;8.38;68.33
35307;BME280;21420;52.196;21.416;2023-02-14T15:48:02;101909.48;;;9.06;68.46